Time;durP1;ratioP1;P1;durP2;ratioP2;P2;SDS_P1;SDS_P2;PMS_P1;PMS_P2;Temp;Humidity;BMP_temperature;BMP_pressure;BME280_temperature;BME280_humidity;BME280_pressure;Samples;Min_cycle;Max_cycle;Signal;HPM_P1;HPM_P2
2022/03/24 00:00:26;;;;;;;9.07;7.18;;;19.30;53.40;;;;;;5090807;28;20027;-75
2022/03/24 00:02:52;;;;;;;11.60;7.82;;;19.30;53.40;;;;;;5090648;28;20388;-74
2022/03/24 00:05:17;;;;;;;8.43;6.90;;;19.30;53.30;;;;;;5091006;28;20024;-75
2022/03/24 00:07:43;;;;;;;10.90;7.55;;;19.30;53.30;;;;;;5091066;28;20486;-75
2022/03/24 00:10:10;;;;;;;11.35;8.05;;;19.20;53.30;;;;;;5091782;28;20020;-75
2022/03/24 00:12:35;;;;;;;10.65;7.35;;;19.20;53.20;;;;;;5091240;28;20035;-76
2022/03/24 00:15:06;;;;;;;9.70;7.75;;;19.20;53.10;;;;;;5091468;28;20017;-76
2022/03/24 00:17:33;;;;;;;9.65;7.80;;;19.20;53.20;;;;;;5090191;28;20032;-76
2022/03/24 00:19:59;;;;;;;10.85;7.15;;;19.20;53.20;;;;;;5091629;28;20092;-77
2022/03/24 00:22:24;;;;;;;10.80;7.95;;;19.20;53.40;;;;;;5091299;28;20031;-79
2022/03/24 00:24:50;;;;;;;14.70;8.93;;;19.10;53.30;;;;;;5090749;28;20016;-75
2022/03/24 00:27:16;;;;;;;11.90;7.68;;;19.10;53.10;;;;;;5089908;28;20468;-78
2022/03/24 00:29:42;;;;;;;10.00;6.85;;;19.10;53.10;;;;;;5090690;28;20067;-76
2022/03/24 00:32:09;;;;;;;11.18;7.40;;;19.10;53.00;;;;;;5091340;28;20031;-75
2022/03/24 00:34:35;;;;;;;11.63;7.07;;;19.10;52.90;;;;;;5091001;28;20020;-78
2022/03/24 00:37:03;;;;;;;10.20;7.10;;;19.10;52.90;;;;;;5091454;28;20059;-73
2022/03/24 00:39:33;;;;;;;14.68;8.13;;;19.10;52.80;;;;;;5091476;28;20020;-75
2022/03/24 00:42:11;;;;;;;10.70;7.82;;;19.00;52.80;;;;;;5090138;28;20032;-76
2022/03/24 00:44:37;;;;;;;10.77;8.18;;;19.00;52.80;;;;;;5090761;28;20028;-76
2022/03/24 00:47:04;;;;;;;10.77;8.02;;;19.00;52.80;;;;;;5089420;28;20061;-75
2022/03/24 00:49:30;;;;;;;10.25;8.43;;;19.00;52.80;;;;;;5091292;28;20055;-76
2022/03/24 00:51:56;;;;;;;12.00;7.80;;;19.00;52.80;;;;;;5090805;28;20016;-75
2022/03/24 00:54:21;;;;;;;10.10;7.00;;;19.00;52.80;;;;;;5091090;28;20103;-77
2022/03/24 00:56:48;;;;;;;12.45;7.82;;;18.90;52.80;;;;;;5090653;28;20114;-75
2022/03/24 00:59:14;;;;;;;10.60;7.55;;;18.90;52.80;;;;;;5091068;28;20410;-76
2022/03/24 01:01:41;;;;;;;11.00;8.02;;;18.90;52.80;;;;;;5090310;28;20038;-76
2022/03/24 01:04:07;;;;;;;11.68;7.82;;;18.90;52.80;;;;;;5090943;28;20486;-79
2022/03/24 01:06:34;;;;;;;10.50;8.73;;;18.90;52.80;;;;;;5090747;28;20020;-75
2022/03/24 01:09:01;;;;;;;10.25;7.85;;;18.90;52.80;;;;;;5091334;28;20020;-76
2022/03/24 01:11:27;;;;;;;11.65;8.30;;;18.90;52.70;;;;;;5090842;28;20107;-77
2022/03/24 01:13:53;;;;;;;10.07;7.43;;;18.90;52.60;;;;;;5090604;28;20028;-76
2022/03/24 01:16:18;;;;;;;13.73;7.85;;;18.90;52.60;;;;;;5089213;28;20082;-75
2022/03/24 01:18:45;;;;;;;9.95;7.70;;;18.90;52.60;;;;;;5090611;28;20399;-78
2022/03/24 01:21:11;;;;;;;13.27;8.15;;;18.90;52.60;;;;;;5090785;28;20101;-75
2022/03/24 01:23:38;;;;;;;9.63;7.57;;;18.80;52.60;;;;;;5090459;28;20059;-76
2022/03/24 01:26:05;;;;;;;10.45;7.78;;;18.80;52.60;;;;;;5090539;28;20035;-76
2022/03/24 01:28:33;;;;;;;9.43;7.68;;;18.80;52.60;;;;;;5090953;28;20548;-75
2022/03/24 01:30:59;;;;;;;9.80;7.13;;;18.80;52.60;;;;;;5090730;28;20097;-75
2022/03/24 01:33:25;;;;;;;10.23;8.48;;;18.80;52.50;;;;;;5090756;28;20032;-76
2022/03/24 01:35:52;;;;;;;10.02;7.93;;;18.70;52.50;;;;;;5091353;28;20032;-75
2022/03/24 01:38:18;;;;;;;10.30;7.88;;;18.70;53.00;;;;;;5094371;28;20073;-76
2022/03/24 01:40:44;;;;;;;10.85;7.88;;;18.70;52.40;;;;;;5094088;28;20020;-74
2022/03/24 01:43:11;;;;;;;9.32;7.93;;;18.70;52.50;;;;;;5093813;28;20028;-75
2022/03/24 01:45:37;;;;;;;14.00;7.85;;;18.70;52.40;;;;;;5094022;28;20346;-75
2022/03/24 01:48:05;;;;;;;13.15;8.13;;;18.70;52.40;;;;;;5094292;28;20040;-79
2022/03/24 01:50:30;;;;;;;10.05;8.10;;;18.70;52.40;;;;;;5094421;28;20380;-76
2022/03/24 01:52:56;;;;;;;11.68;8.73;;;18.70;52.40;;;;;;5093789;28;20099;-74
2022/03/24 01:55:23;;;;;;;13.43;8.77;;;18.70;52.40;;;;;;5093895;28;20024;-75
2022/03/24 01:57:49;;;;;;;10.75;7.93;;;18.60;52.30;;;;;;5093216;28;20040;-74
2022/03/24 02:00:15;;;;;;;11.32;7.93;;;18.60;52.20;;;;;;5093849;28;20028;-74
2022/03/24 02:02:45;;;;;;;11.77;8.52;;;18.60;52.20;;;;;;5092248;28;20024;-74
2022/03/24 02:05:10;;;;;;;12.32;8.68;;;18.60;52.10;;;;;;5093850;28;20059;-74
2022/03/24 02:07:36;;;;;;;10.35;7.63;;;18.60;52.10;;;;;;5093535;28;20056;-75
2022/03/24 02:10:05;;;;;;;11.13;8.60;;;18.50;52.00;;;;;;5093785;28;20092;-74
2022/03/24 02:12:33;;;;;;;11.00;8.07;;;18.60;52.10;;;;;;5093798;28;20020;-75
2022/03/24 02:15:00;;;;;;;10.90;7.68;;;18.60;52.10;;;;;;5093955;28;20070;-74
2022/03/24 02:17:29;;;;;;;10.48;8.63;;;18.50;52.10;;;;;;5093471;28;20032;-75
2022/03/24 02:19:57;;;;;;;12.00;8.90;;;18.50;52.10;;;;;;5091043;28;20096;-75
2022/03/24 02:22:23;;;;;;;12.13;9.32;;;18.50;52.10;;;;;;5093487;28;20024;-76
2022/03/24 02:24:50;;;;;;;10.68;7.93;;;18.50;52.10;;;;;;5093047;28;20032;-74
2022/03/24 02:27:17;;;;;;;9.98;8.40;;;18.50;52.00;;;;;;5093467;28;20048;-74
2022/03/24 02:29:42;;;;;;;11.75;8.48;;;18.50;52.00;;;;;;5093016;28;20024;-75
2022/03/24 02:32:11;;;;;;;10.27;8.10;;;18.50;52.00;;;;;;5093018;28;20031;-74
2022/03/24 02:34:38;;;;;;;10.52;8.35;;;18.40;52.00;;;;;;5091436;28;20031;-77
2022/03/24 02:37:07;;;;;;;10.48;7.75;;;18.40;51.90;;;;;;5093098;28;20032;-75
2022/03/24 02:39:34;;;;;;;10.80;8.48;;;18.40;52.00;;;;;;5092765;28;20046;-75
2022/03/24 02:42:00;;;;;;;11.70;8.95;;;18.40;51.90;;;;;;5093310;28;20036;-75
2022/03/24 02:44:30;;;;;;;11.52;8.68;;;18.40;51.80;;;;;;5093008;28;20024;-74
2022/03/24 02:46:57;;;;;;;11.30;8.65;;;18.40;51.80;;;;;;5092724;28;20032;-74
2022/03/24 02:49:25;;;;;;;9.95;7.72;;;18.40;51.90;;;;;;5092956;28;20020;-75
2022/03/24 02:51:52;;;;;;;11.25;9.00;;;18.40;51.80;;;;;;5092559;28;20407;-77
2022/03/24 02:54:19;;;;;;;11.40;9.63;;;18.40;51.80;;;;;;5092754;28;20028;-74
2022/03/24 02:56:45;;;;;;;12.00;9.05;;;18.30;51.70;;;;;;5092162;28;20036;-75
2022/03/24 02:59:14;;;;;;;14.27;8.80;;;18.30;51.70;;;;;;5092745;28;20024;-75
2022/03/24 03:01:43;;;;;;;11.63;8.90;;;18.30;51.70;;;;;;5092417;28;20479;-76
2022/03/24 03:04:09;;;;;;;12.27;8.82;;;18.30;51.70;;;;;;5091379;28;20055;-75
2022/03/24 03:06:35;;;;;;;13.35;9.38;;;18.30;51.70;;;;;;5092223;28;20035;-74
2022/03/24 03:09:02;;;;;;;11.18;8.90;;;18.30;51.70;;;;;;5092827;28;20024;-73
2022/03/24 03:11:31;;;;;;;10.63;8.93;;;18.30;51.70;;;;;;5092443;28;20127;-75
2022/03/24 03:14:01;;;;;;;13.50;9.82;;;18.30;51.70;;;;;;5092577;28;20096;-75
2022/03/24 03:16:28;;;;;;;12.98;9.85;;;18.30;51.60;;;;;;5091309;28;20123;-75
2022/03/24 03:18:55;;;;;;;13.30;9.68;;;18.20;51.60;;;;;;5092030;28;20095;-73
2022/03/24 03:21:21;;;;;;;13.43;9.40;;;18.20;51.60;;;;;;5092256;28;20025;-74
2022/03/24 03:23:47;;;;;;;13.00;10.00;;;18.20;51.60;;;;;;5092121;28;20035;-74
2022/03/24 03:26:17;;;;;;;12.40;10.23;;;18.20;51.50;;;;;;5091802;28;20024;-74
2022/03/24 03:28:44;;;;;;;13.35;9.95;;;18.20;51.50;;;;;;5090552;28;20032;-74
2022/03/24 03:31:10;;;;;;;13.48;10.18;;;18.20;51.50;;;;;;5090872;28;20047;-73
2022/03/24 03:33:36;;;;;;;12.45;10.02;;;18.20;51.40;;;;;;5091758;28;20039;-73
2022/03/24 03:36:05;;;;;;;11.18;9.50;;;18.20;51.40;;;;;;5092209;28;20024;-74
2022/03/24 03:38:33;;;;;;;15.68;10.27;;;18.20;51.50;;;;;;5092296;28;20035;-74
2022/03/24 03:41:02;;;;;;;12.85;9.45;;;18.10;51.40;;;;;;5092146;28;20036;-75
2022/03/24 03:43:29;;;;;;;13.23;10.10;;;18.10;51.40;;;;;;5092220;28;20032;-75
2022/03/24 03:45:55;;;;;;;14.48;10.25;;;18.10;51.40;;;;;;5091622;28;20103;-75
2022/03/24 03:48:21;;;;;;;11.73;9.55;;;18.10;51.40;;;;;;5091851;28;20020;-74
2022/03/24 03:50:48;;;;;;;13.85;10.05;;;18.10;51.40;;;;;;5090197;28;20472;-74
2022/03/24 03:53:14;;;;;;;14.55;9.50;;;18.10;51.40;;;;;;5090522;28;20484;-74
2022/03/24 03:55:40;;;;;;;13.00;10.25;;;18.10;51.40;;;;;;5091155;28;20024;-75
2022/03/24 03:58:07;;;;;;;13.02;10.35;;;18.10;51.40;;;;;;5091324;28;20028;-75
2022/03/24 04:00:52;;;;;;;13.48;10.23;;;18.10;51.30;;;;;;5091316;28;20016;-74
2022/03/24 04:03:25;;;;;;;12.82;10.15;;;18.10;51.30;;;;;;5091468;28;20514;-75
2022/03/24 04:05:55;;;;;;;13.30;10.88;;;18.10;51.80;;;;;;5089819;28;20444;-74
2022/03/24 04:08:21;;;;;;;14.35;11.18;;;18.00;51.30;;;;;;5091538;28;20024;-74
2022/03/24 04:10:52;;;;;;;12.80;10.75;;;18.10;51.30;;;;;;5090783;28;20042;-75
2022/03/24 04:13:19;;;;;;;13.65;10.75;;;18.00;51.20;;;;;;5090133;28;20107;-74
2022/03/24 04:15:46;;;;;;;13.48;10.57;;;18.00;51.20;;;;;;5091094;28;20468;-76
2022/03/24 04:18:12;;;;;;;13.40;10.30;;;18.00;51.20;;;;;;5090110;28;20036;-74
2022/03/24 04:20:39;;;;;;;15.00;10.98;;;18.00;51.20;;;;;;5091183;28;20030;-75
2022/03/24 04:23:05;;;;;;;12.82;10.77;;;18.00;51.20;;;;;;5091320;28;20103;-75
2022/03/24 04:25:32;;;;;;;13.32;10.70;;;18.00;51.20;;;;;;5089988;28;20020;-77
2022/03/24 04:27:59;;;;;;;11.23;9.70;;;17.90;51.10;;;;;;5090200;28;20030;-75
2022/03/24 04:30:26;;;;;;;13.73;10.55;;;17.90;51.10;;;;;;5091205;28;20070;-75
2022/03/24 04:32:52;;;;;;;14.93;10.70;;;17.90;51.10;;;;;;5090929;28;20458;-75
2022/03/24 04:35:18;;;;;;;13.52;11.05;;;17.90;51.10;;;;;;5091196;28;20476;-76
2022/03/24 04:37:44;;;;;;;13.23;10.45;;;17.90;51.10;;;;;;5090763;28;20032;-74
2022/03/24 04:40:11;;;;;;;15.63;11.40;;;17.90;51.10;;;;;;5089531;28;20028;-75
2022/03/24 04:42:38;;;;;;;14.57;11.10;;;17.90;51.00;;;;;;5089512;28;20372;-74
2022/03/24 04:45:04;;;;;;;15.10;11.00;;;17.90;51.00;;;;;;5091102;28;20020;-74
2022/03/24 04:47:30;;;;;;;14.68;11.05;;;17.90;51.00;;;;;;5091403;28;20066;-74
2022/03/24 04:49:56;;;;;;;13.30;10.43;;;17.80;50.90;;;;;;5090999;28;20056;-75
2022/03/24 04:52:22;;;;;;;12.88;10.65;;;17.80;50.90;;;;;;5091016;28;20032;-75
2022/03/24 04:54:48;;;;;;;14.82;10.57;;;17.80;50.80;;;;;;5089099;28;20024;-76
2022/03/24 04:57:14;;;;;;;15.55;11.70;;;17.80;50.90;;;;;;5090906;28;20040;-75
2022/03/24 04:59:40;;;;;;;14.88;11.18;;;17.80;50.90;;;;;;5089476;28;20513;-74
2022/03/24 05:02:08;;;;;;;13.77;10.68;;;17.80;50.90;;;;;;5090918;28;20047;-75
2022/03/24 05:04:34;;;;;;;15.23;11.65;;;17.80;50.80;;;;;;5090631;28;20024;-75
2022/03/24 05:07:00;;;;;;;16.17;12.20;;;17.80;50.80;;;;;;5091246;28;20036;-75
2022/03/24 05:09:25;;;;;;;15.07;11.85;;;17.80;50.80;;;;;;5090389;28;20491;-73
2022/03/24 05:11:51;;;;;;;15.55;11.93;;;17.80;50.80;;;;;;5093477;28;20024;-75
2022/03/24 05:14:17;;;;;;;15.73;11.45;;;17.80;50.80;;;;;;5094725;28;20016;-74
2022/03/24 05:16:43;;;;;;;13.82;11.15;;;17.80;50.80;;;;;;5094327;28;20040;-74
2022/03/24 05:19:08;;;;;;;16.27;12.75;;;17.70;50.70;;;;;;5094699;28;20028;-75
2022/03/24 05:21:34;;;;;;;15.20;12.32;;;17.70;50.70;;;;;;5094271;28;20040;-74
2022/03/24 05:24:00;;;;;;;15.80;11.93;;;17.70;50.70;;;;;;5094173;28;20028;-75
2022/03/24 05:26:26;;;;;;;20.20;12.80;;;17.70;50.70;;;;;;5092931;28;20070;-73
2022/03/24 05:28:53;;;;;;;16.23;11.40;;;17.70;50.70;;;;;;5094125;28;20020;-73
2022/03/24 05:31:18;;;;;;;16.40;13.32;;;17.70;50.70;;;;;;5094169;28;20097;-74
2022/03/24 05:33:44;;;;;;;14.52;11.70;;;17.70;50.70;;;;;;5094211;28;20514;-74
2022/03/24 05:36:11;;;;;;;14.32;12.30;;;17.70;50.70;;;;;;5094224;28;20043;-73
2022/03/24 05:38:37;;;;;;;17.63;12.82;;;17.70;50.60;;;;;;5094001;28;20020;-76
2022/03/24 05:41:04;;;;;;;15.10;12.35;;;17.70;50.60;;;;;;5094545;28;20500;-75
2022/03/24 05:43:30;;;;;;;15.77;11.80;;;17.70;50.60;;;;;;5094508;28;20024;-76
2022/03/24 05:45:56;;;;;;;16.77;12.48;;;17.70;50.60;;;;;;5093855;28;20020;-76
2022/03/24 05:48:22;;;;;;;17.15;12.88;;;17.60;50.50;;;;;;5093677;28;20032;-77
2022/03/24 05:50:48;;;;;;;16.08;11.68;;;17.70;50.60;;;;;;5093744;28;20081;-74
2022/03/24 05:53:14;;;;;;;17.63;11.80;;;17.60;50.50;;;;;;5092554;28;20113;-72
2022/03/24 05:55:41;;;;;;;17.75;12.52;;;17.60;50.50;;;;;;5093055;28;20021;-72
2022/03/24 05:58:07;;;;;;;14.80;11.80;;;17.60;50.50;;;;;;5093567;28;20038;-73
2022/03/24 06:00:36;;;;;;;17.80;13.57;;;17.60;50.50;;;;;;5093285;28;20032;-73
2022/03/24 06:03:03;;;;;;;16.30;12.55;;;17.60;50.40;;;;;;5094085;28;20028;-72
2022/03/24 06:05:29;;;;;;;17.50;12.38;;;17.60;50.40;;;;;;5093439;28;20024;-73
2022/03/24 06:07:58;;;;;;;17.30;12.27;;;17.60;50.40;;;;;;5091872;28;20065;-73
2022/03/24 06:10:23;;;;;;;16.17;11.95;;;17.60;50.40;;;;;;5099163;28;20024;-72
2022/03/24 06:12:50;;;;;;;19.23;12.45;;;17.60;50.40;;;;;;5089392;28;20020;-73
2022/03/24 06:15:16;;;;;;;17.40;12.07;;;17.60;50.40;;;;;;5091579;28;20131;-73
2022/03/24 06:17:41;;;;;;;17.42;13.20;;;17.50;50.40;;;;;;5112046;28;20526;-73
2022/03/24 06:20:08;;;;;;;16.90;13.00;;;17.50;50.40;;;;;;5103399;28;20084;-73
2022/03/24 06:22:48;;;;;;;19.73;12.88;;;17.50;50.40;;;;;;5089891;28;20028;-73
2022/03/24 06:25:14;;;;;;;17.33;12.65;;;17.50;50.30;;;;;;5103632;28;20038;-73
2022/03/24 06:27:41;;;;;;;15.77;12.65;;;17.50;50.30;;;;;;5096403;28;20040;-74
2022/03/24 06:30:07;;;;;;;17.00;12.18;;;17.50;50.30;;;;;;5092615;28;20024;-73
2022/03/24 06:32:33;;;;;;;15.82;11.95;;;17.50;50.30;;;;;;5096253;28;20138;-72
2022/03/24 06:34:58;;;;;;;14.93;12.45;;;17.50;50.30;;;;;;5091856;28;20099;-73
2022/03/24 06:37:26;;;;;;;16.15;12.98;;;17.50;50.30;;;;;;5092199;28;20032;-72
2022/03/24 06:39:52;;;;;;;17.40;12.70;;;17.50;50.30;;;;;;5092441;28;20020;-74
2022/03/24 06:42:19;;;;;;;16.67;11.98;;;17.50;50.30;;;;;;5092996;28;20054;-72
2022/03/24 06:44:44;;;;;;;14.48;11.88;;;17.50;50.30;;;;;;5092784;28;20023;-72
2022/03/24 06:47:10;;;;;;;15.20;11.70;;;17.40;50.30;;;;;;5092944;28;20032;-72
2022/03/24 06:49:36;;;;;;;15.75;12.13;;;17.50;50.60;;;;;;5092993;28;20027;-72
2022/03/24 06:52:02;;;;;;;21.25;14.98;;;17.50;50.80;;;;;;5092811;28;20107;-72
2022/03/24 06:54:27;;;;;;;26.42;20.50;;;17.50;51.20;;;;;;5092315;28;20048;-75
2022/03/24 06:56:53;;;;;;;57.03;48.15;;;17.50;51.50;;;;;;5092079;28;20097;-72
2022/03/24 06:59:19;;;;;;;29.48;22.85;;;17.50;51.60;;;;;;5094008;28;20028;-72
2022/03/24 07:01:44;;;;;;;34.75;22.33;;;17.60;52.10;;;;;;5092042;28;20111;-73
2022/03/24 07:04:10;;;;;;;30.95;23.88;;;17.60;52.10;;;;;;5090397;28;20024;-72
2022/03/24 07:06:37;;;;;;;29.75;23.73;;;17.60;52.40;;;;;;5092082;28;20036;-74
2022/03/24 07:09:03;;;;;;;32.28;23.42;;;17.60;52.20;;;;;;5092340;28;20380;-76
2022/03/24 07:11:29;;;;;;;27.77;22.15;;;17.60;52.40;;;;;;5092129;28;20024;-73
2022/03/24 07:13:55;;;;;;;31.70;22.50;;;17.60;52.40;;;;;;5091001;28;20031;-73
2022/03/24 07:16:20;;;;;;;33.63;22.25;;;17.60;52.60;;;;;;5091880;28;20032;-75
2022/03/24 07:18:46;;;;;;;27.33;21.85;;;17.60;52.40;;;;;;5090267;28;20028;-75
2022/03/24 07:21:12;;;;;;;29.77;19.83;;;17.70;52.30;;;;;;5091756;28;20032;-73
2022/03/24 07:23:37;;;;;;;26.02;20.02;;;17.70;52.30;;;;;;5091454;28;20016;-75
2022/03/24 07:26:03;;;;;;;28.50;20.30;;;17.70;52.20;;;;;;5091609;28;20032;-74
2022/03/24 07:28:29;;;;;;;28.70;20.02;;;17.70;52.20;;;;;;5092311;28;20030;-73
2022/03/24 07:30:55;;;;;;;26.52;19.58;;;17.70;52.10;;;;;;5091114;28;20026;-74
2022/03/24 07:33:21;;;;;;;29.52;19.23;;;17.70;52.00;;;;;;5090402;28;20092;-76
2022/03/24 07:35:48;;;;;;;26.08;18.08;;;17.70;51.80;;;;;;5091291;28;20135;-75
2022/03/24 07:38:14;;;;;;;23.45;18.42;;;17.70;51.80;;;;;;5091668;28;20051;-74
2022/03/24 07:40:40;;;;;;;26.90;17.58;;;17.70;51.70;;;;;;5091767;28;20020;-75
2022/03/24 07:43:06;;;;;;;26.42;17.52;;;17.70;51.70;;;;;;5090751;28;20407;-74
2022/03/24 07:45:37;;;;;;;25.33;16.95;;;17.70;51.70;;;;;;5090939;28;20023;-74
2022/03/24 07:48:12;;;;;;;25.67;18.40;;;17.70;51.70;;;;;;5094915;28;20379;-76
2022/03/24 07:50:39;;;;;;;24.38;17.88;;;17.70;52.20;;;;;;5090661;28;20031;-74
2022/03/24 07:53:28;;;;;;;30.90;18.00;;;17.70;51.80;;;;;;5091360;28;20024;-75
2022/03/24 07:55:56;;;;;;;25.00;18.50;;;17.70;51.80;;;;;;5062071;28;20032;-75
2022/03/24 07:58:22;;;;;;;29.23;17.58;;;17.70;51.70;;;;;;5091587;28;20396;-74
2022/03/24 08:00:48;;;;;;;23.58;17.63;;;17.70;51.70;;;;;;5091345;28;20024;-72
2022/03/24 08:03:19;;;;;;;24.63;16.95;;;17.80;51.70;;;;;;5091593;28;20028;-74
2022/03/24 08:05:46;;;;;;;27.90;18.00;;;17.70;51.60;;;;;;5091240;28;20016;-72
2022/03/24 08:08:13;;;;;;;24.30;16.40;;;17.70;51.70;;;;;;5091498;28;20045;-74
2022/03/24 08:10:40;;;;;;;21.25;16.45;;;17.70;51.70;;;;;;5091034;28;20522;-73
2022/03/24 08:13:06;;;;;;;25.85;16.42;;;17.80;51.70;;;;;;5090059;28;20089;-75
2022/03/24 08:15:34;;;;;;;24.17;15.85;;;17.80;51.70;;;;;;5089943;28;20016;-73
2022/03/24 08:18:00;;;;;;;22.38;16.05;;;17.80;51.70;;;;;;5090091;28;20073;-72
2022/03/24 08:20:25;;;;;;;20.88;15.75;;;17.80;51.70;;;;;;5091374;28;20013;-73
2022/03/24 08:22:52;;;;;;;22.63;15.50;;;17.80;51.60;;;;;;5091062;28;20024;-75
2022/03/24 08:25:19;;;;;;;26.63;15.93;;;17.80;51.50;;;;;;5091065;28;20098;-73
2022/03/24 08:27:44;;;;;;;23.70;16.90;;;17.80;51.50;;;;;;5091080;28;20027;-73
2022/03/24 08:30:10;;;;;;;22.02;14.68;;;17.80;51.40;;;;;;5091346;28;20032;-74
2022/03/24 08:32:36;;;;;;;21.08;15.20;;;17.80;51.40;;;;;;5091318;28;20055;-74
2022/03/24 08:35:02;;;;;;;23.48;15.73;;;17.80;51.40;;;;;;5090025;28;20028;-74
2022/03/24 08:37:28;;;;;;;24.92;16.08;;;17.80;51.40;;;;;;5091117;28;20028;-75
2022/03/24 08:39:54;;;;;;;23.95;15.20;;;17.80;51.30;;;;;;5090958;28;20036;-73
2022/03/24 08:42:20;;;;;;;23.23;15.73;;;17.80;51.30;;;;;;5091293;28;20024;-75
2022/03/24 08:44:46;;;;;;;20.20;15.55;;;17.90;51.20;;;;;;5090751;28;20028;-75
2022/03/24 08:47:11;;;;;;;21.95;14.68;;;17.90;51.20;;;;;;5095688;28;20032;-73
2022/03/24 08:49:37;;;;;;;21.85;15.75;;;17.90;51.10;;;;;;5096359;28;20040;-76
2022/03/24 08:52:03;;;;;;;20.45;14.82;;;17.90;51.10;;;;;;5095476;28;20031;-78
2022/03/24 08:54:28;;;;;;;19.55;14.35;;;17.90;51.00;;;;;;5095134;28;20111;-75
2022/03/24 08:56:54;;;;;;;21.35;15.07;;;17.90;51.10;;;;;;5093707;28;20073;-73
2022/03/24 08:59:20;;;;;;;21.55;14.68;;;17.90;51.00;;;;;;5095176;28;20024;-73
2022/03/24 09:01:45;;;;;;;19.63;13.93;;;17.90;51.00;;;;;;5094845;28;20031;-74
2022/03/24 09:04:11;;;;;;;19.55;13.82;;;17.90;51.00;;;;;;5095195;28;20027;-73
2022/03/24 09:06:37;;;;;;;22.30;14.73;;;18.00;51.00;;;;;;5095253;28;20028;-72
2022/03/24 09:09:05;;;;;;;24.10;15.82;;;18.00;51.00;;;;;;5094951;28;20541;-75
2022/03/24 09:11:31;;;;;;;19.80;14.63;;;18.00;50.90;;;;;;5093438;28;20035;-72
2022/03/24 09:13:56;;;;;;;23.38;15.63;;;18.00;50.90;;;;;;5095156;28;20028;-75
2022/03/24 09:16:22;;;;;;;17.90;13.65;;;18.00;50.90;;;;;;5093713;28;20024;-74
2022/03/24 09:18:48;;;;;;;19.83;14.95;;;18.00;50.90;;;;;;5094498;28;20035;-74
2022/03/24 09:21:14;;;;;;;22.20;14.73;;;18.00;50.80;;;;;;5094617;28;20487;-74
2022/03/24 09:23:40;;;;;;;23.10;14.05;;;18.00;50.80;;;;;;5094594;28;20036;-72
2022/03/24 09:26:06;;;;;;;21.20;15.65;;;18.00;50.80;;;;;;5094482;28;20036;-73
2022/03/24 09:28:32;;;;;;;19.75;14.55;;;18.10;50.80;;;;;;5094296;28;20032;-73
2022/03/24 09:30:58;;;;;;;24.85;15.15;;;18.10;50.80;;;;;;5094578;28;20476;-72
2022/03/24 09:33:24;;;;;;;19.38;13.75;;;18.10;50.80;;;;;;5094461;28;20031;-72
2022/03/24 09:35:50;;;;;;;20.70;13.80;;;18.10;51.40;;;;;;5092658;28;20502;-71
2022/03/24 09:38:20;;;;;;;18.50;14.15;;;18.10;50.70;;;;;;5092978;28;20491;-72
2022/03/24 09:40:46;;;;;;;21.58;14.18;;;18.10;50.70;;;;;;5094060;28;20020;-72
2022/03/24 09:43:15;;;;;;;21.55;14.50;;;18.10;50.60;;;;;;5094537;28;20475;-71
2022/03/24 09:45:42;;;;;;;20.63;13.80;;;18.10;50.60;;;;;;5094256;28;20027;-72
2022/03/24 09:48:10;;;;;;;18.75;13.90;;;18.10;50.60;;;;;;5094335;28;20043;-72
2022/03/24 09:50:36;;;;;;;20.13;14.90;;;18.20;50.60;;;;;;5093850;28;20058;-72
2022/03/24 09:53:03;;;;;;;20.95;13.10;;;18.20;50.60;;;;;;5094016;28;20469;-72
2022/03/24 09:55:32;;;;;;;18.30;14.25;;;18.20;50.60;;;;;;5094037;28;20028;-72
2022/03/24 09:57:59;;;;;;;20.08;13.88;;;18.20;50.70;;;;;;5093284;28;20396;-72
2022/03/24 10:00:25;;;;;;;19.77;14.35;;;18.20;50.50;;;;;;5093961;28;20145;-72
2022/03/24 10:03:26;;;;;;;18.80;14.50;;;18.20;50.50;;;;;;5093712;28;20576;-73
2022/03/24 10:06:06;;;;;;;17.55;13.77;;;18.20;50.50;;;;;;5011583;28;20548;-73
2022/03/24 10:08:32;;;;;;;20.33;13.77;;;18.20;51.00;;;;;;5081660;28;20067;-72
2022/03/24 10:11:00;;;;;;;17.67;13.80;;;18.30;50.40;;;;;;5092374;28;20028;-72
2022/03/24 10:13:46;;;;;;;21.23;14.88;;;18.30;50.40;;;;;;5093739;28;20055;-72
2022/03/24 10:16:33;;;;;;;17.63;12.93;;;18.30;50.40;;;;;;5093884;28;20498;-72
2022/03/24 10:19:05;;;;;;;17.70;13.07;;;18.30;50.50;;;;;;5093476;28;20085;-73
2022/03/24 10:21:36;;;;;;;17.50;12.75;;;18.30;50.40;;;;;;5093520;28;20022;-72
2022/03/24 10:24:17;;;;;;;18.17;13.02;;;18.30;50.30;;;;;;5093399;28;20077;-72
2022/03/24 10:27:00;;;;;;;18.23;12.55;;;18.40;50.40;;;;;;5093135;28;20032;-73
2022/03/24 10:29:27;;;;;;;16.02;12.27;;;18.40;50.40;;;;;;5091936;28;20053;-72
2022/03/24 10:31:55;;;;;;;16.55;12.52;;;18.40;50.30;;;;;;5093003;28;20099;-72
2022/03/24 10:34:42;;;;;;;19.20;13.75;;;18.50;50.30;;;;;;5093098;28;20484;-73
2022/03/24 10:37:12;;;;;;;18.83;12.50;;;18.40;50.20;;;;;;5093125;28;20039;-71
2022/03/24 10:39:40;;;;;;;18.58;13.02;;;18.40;50.20;;;;;;5092859;28;20480;-73
2022/03/24 10:42:17;;;;;;;19.60;13.18;;;18.50;50.20;;;;;;5093103;28;20017;-73
2022/03/24 10:45:02;;;;;;;17.15;12.25;;;18.50;50.20;;;;;;5092140;28;20384;-73
2022/03/24 10:47:51;;;;;;;17.40;12.13;;;18.60;50.20;;;;;;5092768;28;20060;-73
2022/03/24 10:50:20;;;;;;;16.27;12.05;;;18.60;50.20;;;;;;5092940;28;20017;-73
2022/03/24 10:52:46;;;;;;;16.45;11.68;;;18.60;50.10;;;;;;5092633;28;20024;-75
2022/03/24 10:55:16;;;;;;;18.08;12.43;;;18.60;50.00;;;;;;5093011;28;20055;-72
2022/03/24 10:57:42;;;;;;;18.98;12.88;;;18.60;50.00;;;;;;5092730;28;20137;-72
2022/03/24 11:00:09;;;;;;;16.92;12.77;;;18.60;50.00;;;;;;5092768;28;20170;-73
2022/03/24 11:02:36;;;;;;;17.80;12.23;;;18.70;50.00;;;;;;5092355;28;20054;-72
2022/03/24 11:05:12;;;;;;;16.70;11.77;;;18.70;49.90;;;;;;5092675;28;20023;-73
2022/03/24 11:07:38;;;;;;;15.75;11.93;;;18.70;49.90;;;;;;5091864;28;20034;-72
2022/03/24 11:10:14;;;;;;;15.57;12.23;;;18.70;49.80;;;;;;5091838;28;20392;-72
2022/03/24 11:12:42;;;;;;;14.32;11.80;;;18.70;49.80;;;;;;5090827;28;20032;-72
2022/03/24 11:15:09;;;;;;;15.88;12.10;;;18.70;49.80;;;;;;5092484;28;20012;-74
2022/03/24 11:17:37;;;;;;;14.70;11.13;;;18.80;49.80;;;;;;5074101;28;20161;-73
2022/03/24 11:20:15;;;;;;;16.88;11.90;;;18.80;49.70;;;;;;5092409;28;20024;-74
2022/03/24 11:23:00;;;;;;;16.13;11.63;;;18.90;49.70;;;;;;5092255;28;20028;-72
2022/03/24 11:25:29;;;;;;;14.80;10.77;;;18.90;49.60;;;;;;5090518;28;20031;-72
2022/03/24 11:27:56;;;;;;;15.90;11.70;;;18.90;49.50;;;;;;5091871;28;20016;-74
2022/03/24 11:30:24;;;;;;;17.63;11.70;;;18.90;49.50;;;;;;5090931;28;20024;-72
2022/03/24 11:32:52;;;;;;;13.55;10.07;;;19.00;49.40;;;;;;5090147;28;20552;-72
2022/03/24 11:35:19;;;;;;;13.82;10.02;;;19.00;49.90;;;;;;5092080;28;20109;-73
2022/03/24 11:37:47;;;;;;;15.00;10.77;;;19.10;49.40;;;;;;5091586;28;20032;-74
2022/03/24 11:40:25;;;;;;;15.90;10.98;;;19.10;49.30;;;;;;5092383;28;20027;-72
2022/03/24 11:43:17;;;;;;;14.30;11.27;;;19.10;49.30;;;;;;5091720;28;20032;-72
2022/03/24 11:46:06;;;;;;;14.32;10.13;;;19.10;49.30;;;;;;5091884;28;20020;-73
2022/03/24 11:48:37;;;;;;;12.57;9.50;;;19.20;49.40;;;;;;5091454;28;20090;-73
2022/03/24 11:51:16;;;;;;;12.48;9.25;;;19.30;49.30;;;;;;5090469;28;20020;-72
2022/03/24 11:53:43;;;;;;;12.93;9.63;;;19.40;48.80;;;;;;5091680;28;20028;-73
2022/03/24 11:56:09;;;;;;;14.13;9.85;;;19.50;48.70;;;;;;5090323;28;20032;-72
2022/03/24 11:58:36;;;;;;;11.32;8.27;;;19.60;49.20;;;;;;5089734;28;20444;-75
2022/03/24 12:01:20;;;;;;;19.42;9.05;;;19.80;48.50;;;;;;5089981;28;20407;-74
2022/03/24 12:03:59;;;;;;;14.35;9.60;;;19.90;48.20;;;;;;5087247;28;20024;-72
2022/03/24 12:06:46;;;;;;;12.98;9.13;;;20.00;48.20;;;;;;5088053;28;20027;-73
2022/03/24 12:09:16;;;;;;;10.93;7.60;;;20.30;48.00;;;;;;5088030;28;20020;-73
2022/03/24 12:11:51;;;;;;;12.80;8.32;;;20.40;47.80;;;;;;5087631;28;20023;-73
2022/03/24 12:14:36;;;;;;;12.93;7.50;;;20.60;47.50;;;;;;5090179;28;20016;-73
2022/03/24 12:17:15;;;;;;;11.13;8.10;;;20.80;47.30;;;;;;5086117;28;20032;-73
2022/03/24 12:49:14;;;;;;;8.35;6.63;;;;;;;;;;5333300;23;20126;-73
2022/03/24 12:52:01;;;;;;;8.98;6.10;;;24.10;42.70;;;;;;4990750;28;20117;-74
2022/03/24 12:54:28;;;;;;;8.48;6.53;;;24.00;42.90;;;;;;4991163;28;20449;-73
2022/03/24 12:57:21;;;;;;;8.88;6.22;;;24.00;42.80;;;;;;4990930;28;20072;-73
2022/03/24 12:59:47;;;;;;;8.27;6.03;;;23.90;42.80;;;;;;4982971;28;20034;-75
2022/03/24 13:02:13;;;;;;;11.55;6.63;;;;;;;;;;4990368;28;20058;-74
2022/03/24 13:04:39;;;;;;;10.73;6.25;;;;;;;;;;4984091;28;20125;-73
2022/03/24 13:07:06;;;;;;;8.98;6.53;;;23.60;43.00;;;;;;4972313;28;20023;-74